Time;durP1;ratioP1;P1;durP2;ratioP2;P2;SDS_P1;SDS_P2;PMS_P1;PMS_P2;Temp;Humidity;BMP_temperature;BMP_pressure;BME280_temperature;BME280_humidity;BME280_pressure;Samples;Min_cycle;Max_cycle;Signal;HPM_P1;HPM_P2
2023/01/31 00:00:48;;;;;;;5.75;3.08;;;22.20;42.20;;;;;;6127832;28;80323;-65
2023/01/31 00:03:48;;;;;;;4.78;2.63;;;22.20;42.20;;;;;;6126738;28;80984;-65
2023/01/31 00:06:49;;;;;;;4.47;3.00;;;22.10;42.00;;;;;;6126661;28;80256;-65
2023/01/31 00:09:50;;;;;;;5.80;2.80;;;22.20;42.00;;;;;;6132950;28;80607;-64
2023/01/31 00:12:50;;;;;;;4.80;2.75;;;22.10;41.90;;;;;;6134056;28;81486;-65
2023/01/31 00:15:51;;;;;;;5.82;3.15;;;22.10;41.70;;;;;;6122989;28;80824;-64
2023/01/31 00:18:51;;;;;;;5.50;3.08;;;22.10;41.60;;;;;;6125801;28;80365;-64
2023/01/31 00:21:52;;;;;;;5.95;3.38;;;22.10;41.60;;;;;;6140193;28;80239;-64
2023/01/31 00:24:52;;;;;;;6.78;3.20;;;22.10;41.50;;;;;;6135055;28;81056;-64
2023/01/31 00:27:53;;;;;;;4.88;3.00;;;22.10;41.40;;;;;;6123178;28;80731;-63
2023/01/31 00:30:54;;;;;;;5.70;3.38;;;22.10;41.30;;;;;;6137871;28;81566;-64
2023/01/31 00:33:54;;;;;;;5.60;3.13;;;22.00;41.10;;;;;;6114093;28;81947;-64
2023/01/31 00:36:55;;;;;;;4.97;3.10;;;22.00;41.10;;;;;;6127330;28;83251;-65
2023/01/31 00:39:55;;;;;;;5.30;3.10;;;22.00;41.20;;;;;;6138430;28;81103;-66
2023/01/31 00:42:57;;;;;;;5.95;3.17;;;22.10;41.10;;;;;;6140069;28;80063;-65
2023/01/31 00:45:58;;;;;;;6.35;3.25;;;22.00;41.00;;;;;;6154428;28;83549;-65
2023/01/31 00:48:58;;;;;;;3.40;2.50;;;22.00;41.50;;;;;;6144392;28;83266;-64
2023/01/31 00:51:59;;;;;;;4.45;2.60;;;22.00;41.10;;;;;;6148800;28;80642;-64
2023/01/31 00:55:00;;;;;;;5.72;3.47;;;22.00;40.90;;;;;;6151228;28;83168;-58
2023/01/31 00:58:00;;;;;;;4.63;2.80;;;22.00;40.90;;;;;;6128276;28;83120;-58
2023/01/31 01:01:01;;;;;;;5.75;3.03;;;22.00;40.90;;;;;;6130005;28;82177;-58
2023/01/31 01:04:01;;;;;;;6.53;2.80;;;21.90;40.80;;;;;;6138928;28;82520;-57
2023/01/31 01:07:06;;;;;;;4.28;2.47;;;21.90;40.80;;;;;;6130753;28;83681;-58
2023/01/31 01:10:07;;;;;;;6.05;3.20;;;22.00;41.00;;;;;;6123295;28;83418;-58
2023/01/31 01:13:08;;;;;;;5.10;3.00;;;22.00;40.90;;;;;;6124569;28;80653;-59
2023/01/31 01:16:09;;;;;;;4.97;2.60;;;21.90;40.90;;;;;;6120760;28;83469;-58
2023/01/31 01:19:09;;;;;;;4.57;3.00;;;21.90;40.90;;;;;;6121022;28;81495;-58
2023/01/31 01:22:15;;;;;;;7.13;3.33;;;21.90;40.90;;;;;;6131070;28;81465;-58
2023/01/31 01:25:15;;;;;;;6.13;3.17;;;21.90;40.90;;;;;;6125509;28;83408;-58
2023/01/31 01:28:16;;;;;;;4.18;2.72;;;21.90;40.80;;;;;;6135159;28;83324;-58
2023/01/31 01:31:17;;;;;;;4.63;2.83;;;21.90;40.90;;;;;;6123701;28;83085;-59
2023/01/31 01:34:18;;;;;;;4.15;2.63;;;21.90;41.00;;;;;;6115222;28;80543;-56
2023/01/31 01:37:19;;;;;;;4.32;2.58;;;21.90;40.90;;;;;;6113819;28;81205;-56
2023/01/31 01:40:20;;;;;;;5.28;2.90;;;21.90;41.10;;;;;;6135591;28;81441;-57
2023/01/31 01:43:21;;;;;;;4.13;2.75;;;21.90;41.30;;;;;;6125968;28;83306;-56
2023/01/31 01:46:21;;;;;;;5.00;2.40;;;21.90;41.60;;;;;;6136796;28;80537;-55
2023/01/31 01:49:22;;;;;;;4.18;2.65;;;21.90;41.60;;;;;;6154760;28;80247;-56
2023/01/31 01:52:22;;;;;;;4.25;2.90;;;21.90;41.70;;;;;;6129984;28;81902;-55
2023/01/31 01:55:23;;;;;;;4.75;2.70;;;21.90;41.70;;;;;;6125755;28;82097;-52
2023/01/31 01:58:23;;;;;;;4.13;2.15;;;21.90;41.60;;;;;;6127364;28;80690;-56
2023/01/31 02:01:24;;;;;;;4.25;2.45;;;21.90;41.50;;;;;;6129194;28;80329;-57
2023/01/31 02:04:24;;;;;;;4.75;2.63;;;21.90;41.50;;;;;;6130395;28;81222;-55
2023/01/31 02:07:25;;;;;;;4.32;2.30;;;21.80;41.60;;;;;;6117207;28;82070;-56
2023/01/31 02:10:26;;;;;;;4.00;2.58;;;21.80;41.50;;;;;;6128564;28;80541;-56
2023/01/31 02:13:26;;;;;;;4.15;2.25;;;21.80;41.50;;;;;;6126670;28;80581;-52
2023/01/31 02:16:27;;;;;;;3.25;2.00;;;21.80;41.50;;;;;;6126345;28;80833;-56
2023/01/31 02:19:27;;;;;;;3.60;2.30;;;21.80;41.60;;;;;;6129406;28;80579;-56
2023/01/31 02:22:28;;;;;;;4.32;2.50;;;21.80;41.60;;;;;;6138186;28;83493;-54
2023/01/31 02:25:28;;;;;;;3.80;2.15;;;21.80;41.50;;;;;;6120947;28;80420;-54
2023/01/31 02:28:29;;;;;;;3.90;2.53;;;21.80;41.50;;;;;;6114906;28;83558;-57
2023/01/31 02:31:30;;;;;;;6.28;2.58;;;21.80;41.50;;;;;;6128172;28;83073;-53
2023/01/31 02:34:31;;;;;;;4.65;2.63;;;21.80;41.40;;;;;;6118363;28;83122;-54
2023/01/31 02:37:31;;;;;;;4.28;2.50;;;21.80;41.30;;;;;;6122154;28;80781;-56
2023/01/31 02:40:32;;;;;;;4.18;2.40;;;21.80;41.40;;;;;;6115518;28;81719;-56
2023/01/31 02:43:32;;;;;;;3.40;2.50;;;21.80;41.40;;;;;;6116942;28;83099;-56
2023/01/31 02:46:34;;;;;;;5.32;2.45;;;21.80;41.30;;;;;;6110396;28;82409;-51
2023/01/31 02:49:35;;;;;;;4.57;2.53;;;21.80;41.30;;;;;;6105502;28;80679;-51
2023/01/31 02:52:46;;;;;;;5.47;2.72;;;21.80;41.20;;;;;;6127826;28;83326;-51
2023/01/31 02:59:06;;;;;;;4.95;2.83;;;21.80;41.20;;;;;;6156478;28;83470;-49
2023/01/31 03:02:07;;;;;;;6.13;2.45;;;21.80;41.10;;;;;;6136613;28;81641;-50
2023/01/31 03:05:09;;;;;;;4.57;2.53;;;21.80;41.10;;;;;;6142093;28;82085;-45
2023/01/31 03:08:09;;;;;;;5.35;2.13;;;21.80;41.10;;;;;;6127494;28;81005;-45
2023/01/31 03:11:10;;;;;;;3.95;2.17;;;21.80;41.00;;;;;;6126872;28;81928;-47
2023/01/31 03:14:11;;;;;;;5.10;2.28;;;21.80;41.20;;;;;;6142350;28;83436;-50
2023/01/31 03:20:31;;;;;;;5.70;2.90;;;21.80;41.10;;;;;;6136326;28;81738;-51
2023/01/31 03:23:33;;;;;;;6.70;2.47;;;21.80;41.10;;;;;;6126063;28;83284;-50
2023/01/31 03:26:34;;;;;;;5.95;2.38;;;21.80;41.20;;;;;;6121759;28;83633;-52
2023/01/31 03:29:37;;;;;;;4.55;2.63;;;21.80;41.40;;;;;;6105908;28;82695;-51
2023/01/31 03:32:39;;;;;;;4.72;2.45;;;21.80;41.30;;;;;;6115495;28;82743;-49
2023/01/31 03:35:40;;;;;;;5.60;2.35;;;21.80;41.30;;;;;;6116121;28;82204;-51
2023/01/31 03:38:40;;;;;;;5.95;2.70;;;21.80;41.40;;;;;;6115243;28;83113;-52
2023/01/31 03:41:41;;;;;;;6.20;2.53;;;21.80;41.40;;;;;;6105700;28;80591;-57
2023/01/31 03:44:42;;;;;;;3.90;2.05;;;21.80;41.30;;;;;;6129024;28;80563;-53
2023/01/31 03:47:42;;;;;;;3.30;2.35;;;21.80;41.40;;;;;;6138884;28;82191;-56
2023/01/31 03:50:44;;;;;;;3.95;2.25;;;21.80;41.30;;;;;;6155462;28;83304;-57
2023/01/31 03:53:45;;;;;;;5.53;2.35;;;21.80;41.40;;;;;;6126777;28;83079;-58
2023/01/31 03:56:46;;;;;;;5.35;2.22;;;21.80;41.30;;;;;;6117275;28;83083;-57
2023/01/31 03:59:47;;;;;;;3.92;2.47;;;21.80;41.30;;;;;;6098848;28;80617;-54
2023/01/31 04:02:47;;;;;;;6.53;2.53;;;21.80;41.50;;;;;;6111449;28;83063;-56
2023/01/31 04:05:48;;;;;;;6.30;2.60;;;21.80;41.50;;;;;;6137960;28;82507;-55
2023/01/31 04:08:49;;;;;;;4.18;2.08;;;21.80;41.30;;;;;;6108957;28;83252;-56
2023/01/31 04:11:49;;;;;;;6.40;2.30;;;21.80;41.30;;;;;;6126940;28;80212;-57
2023/01/31 04:14:50;;;;;;;6.75;2.50;;;21.80;41.30;;;;;;6119809;28;81273;-56
2023/01/31 04:17:50;;;;;;;5.95;2.80;;;21.80;41.30;;;;;;6119938;28;80567;-61
2023/01/31 04:20:51;;;;;;;4.43;2.25;;;21.80;41.20;;;;;;6129852;28;80623;-65
2023/01/31 04:23:52;;;;;;;6.93;2.45;;;21.80;41.20;;;;;;6140902;28;80173;-62
2023/01/31 04:26:52;;;;;;;5.40;2.20;;;21.80;41.30;;;;;;6114614;28;80785;-64
2023/01/31 04:29:53;;;;;;;6.97;2.28;;;21.80;41.30;;;;;;6118170;28;80402;-63
2023/01/31 04:32:53;;;;;;;5.05;2.22;;;21.80;41.40;;;;;;6107001;28;80469;-64
2023/01/31 04:35:54;;;;;;;5.13;2.53;;;21.90;41.50;;;;;;6129445;28;80392;-63
2023/01/31 04:38:54;;;;;;;7.50;2.28;;;21.90;41.50;;;;;;6128505;28;80314;-62
2023/01/31 04:41:55;;;;;;;7.00;2.45;;;21.90;41.90;;;;;;6124368;28;80714;-61
2023/01/31 04:44:55;;;;;;;8.80;2.38;;;21.90;41.90;;;;;;6126010;28;82657;-61
2023/01/31 04:47:56;;;;;;;4.32;1.85;;;22.00;41.60;;;;;;6119686;28;81075;-60
2023/01/31 04:50:56;;;;;;;5.78;2.63;;;22.10;41.50;;;;;;6131920;28;81071;-60
2023/01/31 04:53:57;;;;;;;7.25;2.45;;;22.20;41.70;;;;;;6110029;28;80897;-59
2023/01/31 04:56:57;;;;;;;7.15;1.95;;;22.30;41.40;;;;;;6128443;28;82220;-60
2023/01/31 04:59:58;;;;;;;14.95;2.67;;;22.30;41.80;;;;;;6134426;28;82197;-59
2023/01/31 05:02:59;;;;;;;6.80;2.47;;;22.40;41.70;;;;;;6118606;28;80647;-60
2023/01/31 05:06:00;;;;;;;7.40;1.70;;;22.40;41.50;;;;;;6115026;28;82419;-64
2023/01/31 05:09:00;;;;;;;6.68;2.00;;;22.40;41.40;;;;;;6129383;28;81376;-61
2023/01/31 05:12:01;;;;;;;5.55;1.90;;;22.50;41.60;;;;;;6130038;28;80450;-61
2023/01/31 05:15:02;;;;;;;14.25;1.88;;;22.50;41.20;;;;;;6119665;28;81883;-61
2023/01/31 05:18:03;;;;;;;8.07;2.13;;;22.50;41.20;;;;;;6125747;28;82215;-61
2023/01/31 05:21:03;;;;;;;4.95;1.58;;;22.50;41.40;;;;;;6123469;28;83661;-63
2023/01/31 05:24:04;;;;;;;4.72;1.83;;;22.60;41.50;;;;;;6112427;28;80666;-63
2023/01/31 05:27:04;;;;;;;5.90;1.83;;;22.60;41.20;;;;;;6106584;28;85407;-61
2023/01/31 05:30:05;;;;;;;3.20;1.63;;;22.60;41.20;;;;;;6102567;28;80996;-59
2023/01/31 05:33:05;;;;;;;7.22;1.50;;;22.60;41.30;;;;;;6130885;28;81628;-63
2023/01/31 05:36:06;;;;;;;4.60;1.83;;;22.60;41.10;;;;;;6135272;28;80311;-60
2023/01/31 05:39:06;;;;;;;4.78;2.35;;;22.70;40.90;;;;;;6125933;28;84485;-60
2023/01/31 05:42:07;;;;;;;7.30;2.40;;;22.60;40.50;;;;;;6115354;28;80771;-59
2023/01/31 05:45:07;;;;;;;7.72;2.20;;;22.70;40.30;;;;;;6126909;28;82531;-67
2023/01/31 05:48:08;;;;;;;5.40;1.90;;;22.60;40.00;;;;;;6109986;28;80827;-69
2023/01/31 05:51:08;;;;;;;5.25;1.85;;;22.60;39.60;;;;;;6124590;28;80805;-64
2023/01/31 05:54:09;;;;;;;11.38;2.05;;;22.60;39.60;;;;;;6119025;28;80886;-64
2023/01/31 05:57:10;;;;;;;12.82;2.17;;;22.60;39.90;;;;;;6126830;28;80338;-65
2023/01/31 06:00:10;;;;;;;4.47;1.75;;;22.60;39.80;;;;;;6115353;28;82123;-62
2023/01/31 06:03:13;;;;;;;6.82;2.08;;;22.60;39.60;;;;;;6125337;28;83840;-62
2023/01/31 06:06:14;;;;;;;7.65;2.33;;;22.50;39.50;;;;;;6114801;28;80389;-61
2023/01/31 06:09:14;;;;;;;3.72;2.10;;;22.50;39.40;;;;;;6120112;28;80315;-62
2023/01/31 06:12:15;;;;;;;6.82;3.03;;;22.50;39.20;;;;;;6116386;28;80360;-61
2023/01/31 06:15:15;;;;;;;5.00;2.65;;;22.50;39.20;;;;;;6105653;28;81731;-61
2023/01/31 06:18:16;;;;;;;5.65;2.45;;;22.50;39.40;;;;;;6125509;28;80909;-62
2023/01/31 06:21:16;;;;;;;4.15;2.10;;;22.40;39.40;;;;;;6106599;28;80548;-63
2023/01/31 06:24:17;;;;;;;12.93;2.30;;;22.30;39.30;;;;;;6122879;28;80647;-61
2023/01/31 06:27:17;;;;;;;6.28;2.00;;;22.30;39.20;;;;;;6122574;28;81000;-52
2023/01/31 06:30:18;;;;;;;5.18;2.30;;;22.30;39.30;;;;;;6125220;28;80475;-52
2023/01/31 06:33:18;;;;;;;5.95;2.30;;;22.30;39.00;;;;;;6117353;28;80937;-56
2023/01/31 06:36:19;;;;;;;5.00;2.42;;;22.20;38.80;;;;;;6127181;28;80990;-54
2023/01/31 06:39:19;;;;;;;4.10;2.20;;;22.20;38.80;;;;;;6139958;28;80942;-51
2023/01/31 06:42:20;;;;;;;6.85;2.85;;;22.20;38.60;;;;;;6111740;28;86282;-50
2023/01/31 06:45:20;;;;;;;4.75;2.30;;;22.20;38.60;;;;;;6133342;28;81156;-52
2023/01/31 06:48:21;;;;;;;4.20;2.13;;;22.10;38.80;;;;;;6109036;28;82856;-53
2023/01/31 06:51:21;;;;;;;5.90;2.10;;;22.10;39.00;;;;;;6117145;28;80338;-53
2023/01/31 06:54:22;;;;;;;7.07;2.50;;;22.10;39.10;;;;;;6132944;28;80682;-48
2023/01/31 06:57:23;;;;;;;5.18;2.35;;;22.00;38.90;;;;;;6113850;28;80199;-53
2023/01/31 07:00:24;;;;;;;5.38;2.00;;;22.00;38.80;;;;;;6125993;28;81068;-54
2023/01/31 07:03:25;;;;;;;5.50;2.35;;;22.00;39.00;;;;;;6127860;28;83590;-53
2023/01/31 07:06:25;;;;;;;4.78;2.20;;;22.00;39.10;;;;;;6115105;28;80301;-55
2023/01/31 07:09:26;;;;;;;7.22;3.28;;;21.90;39.10;;;;;;6103523;28;80474;-53
2023/01/31 07:12:26;;;;;;;9.13;3.38;;;21.90;38.90;;;;;;6116783;28;80542;-56
2023/01/31 07:15:27;;;;;;;7.68;3.63;;;21.90;38.90;;;;;;6124170;28;80505;-55
2023/01/31 07:18:27;;;;;;;8.63;3.10;;;21.80;38.60;;;;;;6107358;28;80560;-57
2023/01/31 07:21:28;;;;;;;7.20;3.00;;;21.80;38.40;;;;;;6113888;28;80955;-62
2023/01/31 07:24:29;;;;;;;9.27;2.67;;;21.80;38.40;;;;;;6113226;28;80416;-63
2023/01/31 07:27:29;;;;;;;6.43;3.50;;;21.70;38.70;;;;;;6111474;28;80343;-63
2023/01/31 07:30:30;;;;;;;9.70;3.60;;;21.70;37.90;;;;;;6127063;28;80165;-62
2023/01/31 07:33:30;;;;;;;11.13;3.70;;;21.60;37.80;;;;;;6119989;28;82561;-62
2023/01/31 07:36:31;;;;;;;6.93;3.03;;;21.60;37.80;;;;;;6127083;28;83342;-63
2023/01/31 07:39:31;;;;;;;7.97;3.70;;;21.60;37.70;;;;;;6127676;28;81826;-62
2023/01/31 07:42:32;;;;;;;8.18;3.35;;;21.50;37.50;;;;;;6121369;28;80469;-63
2023/01/31 07:45:32;;;;;;;10.82;3.78;;;21.50;37.40;;;;;;6115387;28;80539;-63
2023/01/31 07:48:33;;;;;;;9.25;3.17;;;21.40;37.30;;;;;;6110241;28;81666;-63
2023/01/31 07:51:34;;;;;;;11.10;4.10;;;21.40;37.30;;;;;;6108925;28;80386;-62
2023/01/31 07:54:35;;;;;;;11.00;4.07;;;21.40;37.10;;;;;;6107425;28;80351;-62
2023/01/31 07:57:35;;;;;;;12.30;4.40;;;21.40;37.20;;;;;;6114210;28;82802;-52
2023/01/31 08:03:55;;;;;;;9.75;4.10;;;21.30;36.70;;;;;;6126892;28;82209;-58
2023/01/31 08:06:58;;;;;;;10.82;3.60;;;21.30;36.40;;;;;;6119301;28;80775;-47
2023/01/31 08:09:59;;;;;;;7.40;3.53;;;21.40;36.50;;;;;;6110148;28;80469;-52
2023/01/31 08:12:59;;;;;;;12.25;4.45;;;21.30;36.60;;;;;;6114702;28;80518;-49
2023/01/31 08:16:00;;;;;;;10.20;3.53;;;21.40;36.70;;;;;;6107203;28;80526;-50
2023/01/31 08:19:00;;;;;;;10.90;3.72;;;21.40;37.10;;;;;;6120944;28;80698;-50
2023/01/31 08:22:00;;;;;;;10.40;4.05;;;21.50;37.00;;;;;;6112800;28;80385;-50
2023/01/31 08:25:01;;;;;;;10.20;3.95;;;21.50;36.90;;;;;;6115490;28;81294;-51
2023/01/31 08:28:02;;;;;;;9.23;3.80;;;21.50;36.60;;;;;;6128619;28;82367;-51
2023/01/31 08:31:02;;;;;;;8.85;3.80;;;21.60;36.70;;;;;;6149621;28;80406;-48
2023/01/31 08:34:03;;;;;;;8.45;3.58;;;21.60;36.50;;;;;;6128274;28;83709;-47
2023/01/31 08:37:03;;;;;;;10.27;3.80;;;21.70;36.60;;;;;;6141194;28;81692;-48
2023/01/31 08:40:04;;;;;;;9.43;3.90;;;21.70;36.40;;;;;;6128467;28;80887;-53
2023/01/31 08:43:04;;;;;;;8.73;3.58;;;21.80;36.60;;;;;;6122534;28;80605;-47
2023/01/31 08:46:05;;;;;;;8.52;3.60;;;21.80;36.50;;;;;;6130435;28;80733;-49
2023/01/31 08:49:05;;;;;;;6.32;3.42;;;21.80;36.40;;;;;;6140442;28;80826;-48
2023/01/31 08:52:06;;;;;;;6.40;3.28;;;21.80;36.40;;;;;;6143807;28;81703;-52
2023/01/31 08:55:09;;;;;;;9.85;3.75;;;21.90;36.50;;;;;;6122399;28;81471;-50
2023/01/31 08:58:09;;;;;;;9.73;3.75;;;21.90;36.40;;;;;;6125024;28;80268;-49
2023/01/31 09:01:10;;;;;;;10.32;3.22;;;21.90;36.40;;;;;;6128770;28;80478;-50
2023/01/31 09:04:11;;;;;;;9.15;3.42;;;21.90;36.40;;;;;;6129595;28;80486;-47
2023/01/31 09:07:11;;;;;;;12.55;4.05;;;22.00;36.40;;;;;;6114699;28;80394;-47
2023/01/31 09:10:12;;;;;;;10.27;3.45;;;22.00;36.30;;;;;;6120439;28;82988;-49
2023/01/31 09:13:12;;;;;;;6.15;3.00;;;22.00;36.30;;;;;;6130788;28;80709;-55
2023/01/31 09:16:13;;;;;;;9.90;3.72;;;22.00;36.30;;;;;;6141120;28;80932;-50
2023/01/31 09:19:13;;;;;;;10.45;3.78;;;22.10;36.20;;;;;;6138736;28;80698;-54
2023/01/31 09:22:14;;;;;;;7.15;3.20;;;22.10;36.30;;;;;;6133223;28;81163;-53
2023/01/31 09:25:14;;;;;;;7.80;3.88;;;22.10;36.20;;;;;;6123535;28;80437;-53
2023/01/31 09:28:15;;;;;;;10.63;4.00;;;22.20;36.20;;;;;;6097315;28;82833;-53
2023/01/31 09:31:15;;;;;;;8.90;3.67;;;22.20;36.20;;;;;;6128198;28;82548;-54
2023/01/31 09:34:16;;;;;;;7.78;3.70;;;22.20;36.30;;;;;;6117244;28;80377;-54
2023/01/31 09:37:16;;;;;;;8.93;4.00;;;22.20;36.30;;;;;;6129379;28;87536;-54
2023/01/31 09:40:17;;;;;;;10.40;3.53;;;22.20;36.50;;;;;;6112794;28;80478;-58
2023/01/31 09:43:17;;;;;;;7.55;3.53;;;22.30;36.60;;;;;;6115963;28;81783;-50
2023/01/31 09:46:18;;;;;;;8.60;3.83;;;22.30;36.70;;;;;;6123699;28;82051;-55
2023/01/31 09:49:18;;;;;;;7.22;3.58;;;22.30;36.90;;;;;;6130045;28;81290;-48
2023/01/31 09:52:19;;;;;;;11.65;4.10;;;22.30;36.80;;;;;;6128861;28;80893;-50
2023/01/31 09:55:20;;;;;;;9.23;4.20;;;22.30;36.80;;;;;;6122756;28;83363;-49
2023/01/31 09:58:20;;;;;;;11.73;3.80;;;22.30;36.80;;;;;;6113451;28;81473;-48
2023/01/31 10:01:21;;;;;;;10.00;4.05;;;22.40;36.90;;;;;;6125126;28;81527;-53
2023/01/31 10:04:21;;;;;;;8.52;3.80;;;22.40;36.80;;;;;;6123431;28;81286;-48
2023/01/31 10:07:22;;;;;;;7.65;3.63;;;22.40;36.90;;;;;;6106688;28;80281;-50
2023/01/31 10:10:22;;;;;;;7.53;3.67;;;22.40;36.90;;;;;;6109080;28;81234;-50
2023/01/31 10:13:23;;;;;;;11.70;4.03;;;22.40;37.10;;;;;;6115251;28;80384;-48
2023/01/31 10:16:23;;;;;;;37.70;7.70;;;22.40;37.10;;;;;;6130763;28;80417;-49
2023/01/31 10:19:24;;;;;;;20.33;4.47;;;22.40;37.20;;;;;;6130012;28;81136;-50
2023/01/31 10:22:24;;;;;;;17.23;4.43;;;22.50;37.20;;;;;;6129332;28;80480;-46
2023/01/31 10:25:25;;;;;;;13.02;4.20;;;22.50;37.20;;;;;;6118662;28;81092;-59
2023/01/31 10:28:26;;;;;;;15.02;4.72;;;22.50;37.30;;;;;;6103449;28;80626;-61
2023/01/31 10:31:26;;;;;;;12.25;4.13;;;22.50;37.20;;;;;;6115011;28;81382;-59
2023/01/31 10:34:27;;;;;;;14.18;5.13;;;22.50;37.20;;;;;;6107561;28;81382;-59
2023/01/31 10:37:28;;;;;;;11.18;4.50;;;22.50;37.40;;;;;;6120627;28;80658;-60
2023/01/31 10:40:29;;;;;;;10.75;4.47;;;22.50;37.20;;;;;;6118342;28;80671;-59
2023/01/31 10:43:29;;;;;;;13.98;4.25;;;22.50;37.20;;;;;;6114149;28;80410;-59
2023/01/31 10:46:30;;;;;;;19.08;5.00;;;22.50;37.30;;;;;;6121777;28;80968;-60
2023/01/31 10:49:31;;;;;;;13.13;4.72;;;22.50;37.30;;;;;;6130600;28;81648;-60
2023/01/31 10:52:31;;;;;;;11.65;3.95;;;22.50;37.10;;;;;;6119751;28;80788;-59
2023/01/31 10:55:32;;;;;;;7.45;3.85;;;22.50;37.10;;;;;;6107051;28;81780;-59
2023/01/31 10:58:33;;;;;;;9.80;3.85;;;22.60;37.00;;;;;;6109257;28;81709;-60
2023/01/31 11:01:34;;;;;;;9.68;3.95;;;22.60;37.00;;;;;;6120747;28;80350;-46
2023/01/31 11:04:34;;;;;;;10.85;3.63;;;22.60;37.10;;;;;;6109884;28;80268;-49
2023/01/31 11:07:35;;;;;;;8.05;3.88;;;22.60;37.30;;;;;;6118328;28;81029;-47
2023/01/31 11:10:36;;;;;;;12.02;4.63;;;22.60;37.10;;;;;;6116891;28;82026;-47
2023/01/31 11:13:36;;;;;;;10.73;4.22;;;22.60;37.20;;;;;;6125559;28;80859;-47
2023/01/31 11:16:37;;;;;;;10.77;4.47;;;22.60;37.00;;;;;;6107811;28;81211;-47
2023/01/31 11:19:37;;;;;;;12.38;5.00;;;22.60;37.40;;;;;;6119725;28;80756;-52
2023/01/31 11:22:38;;;;;;;13.25;4.28;;;22.60;37.10;;;;;;6092731;28;82854;-50
2023/01/31 11:25:39;;;;;;;7.18;3.95;;;22.60;37.10;;;;;;6096653;28;80996;-47
2023/01/31 11:28:39;;;;;;;10.13;4.03;;;22.60;36.90;;;;;;6101396;28;83650;-50
2023/01/31 11:31:40;;;;;;;9.82;4.03;;;22.60;36.90;;;;;;6101652;28;80611;-53
2023/01/31 11:34:41;;;;;;;9.23;3.25;;;22.60;36.90;;;;;;6100076;28;80547;-50
2023/01/31 11:37:41;;;;;;;11.50;4.78;;;22.60;36.90;;;;;;6116813;28;89412;-48
2023/01/31 11:40:42;;;;;;;10.70;4.05;;;22.60;36.90;;;;;;6120650;28;80783;-52
2023/01/31 11:43:42;;;;;;;8.32;3.85;;;22.60;36.90;;;;;;6117725;28;80764;-52
2023/01/31 11:46:43;;;;;;;8.65;3.40;;;22.60;36.90;;;;;;6122145;28;80913;-49
2023/01/31 11:49:43;;;;;;;10.93;3.90;;;22.60;36.90;;;;;;6123341;28;80202;-48
2023/01/31 11:52:44;;;;;;;10.57;4.35;;;22.70;37.60;;;;;;6122951;28;80341;-47
2023/01/31 11:55:44;;;;;;;8.23;4.07;;;22.60;36.80;;;;;;6113121;28;81582;-50
2023/01/31 11:58:45;;;;;;;7.70;3.42;;;22.70;36.90;;;;;;6105135;28;80728;-54
2023/01/31 12:01:46;;;;;;;8.18;3.78;;;22.60;36.80;;;;;;6102596;28;84702;-52
2023/01/31 12:04:46;;;;;;;12.98;3.28;;;22.60;36.70;;;;;;6106353;28;81008;-52
2023/01/31 12:07:48;;;;;;;9.93;4.05;;;22.60;36.70;;;;;;6098940;28;82059;-50
2023/01/31 12:10:49;;;;;;;6.38;3.47;;;22.70;36.70;;;;;;6110853;28;80437;-52
2023/01/31 12:13:50;;;;;;;9.18;4.40;;;22.60;36.60;;;;;;6121804;28;82244;-49
2023/01/31 12:16:50;;;;;;;9.93;3.65;;;22.70;36.80;;;;;;6121851;28;80641;-52
2023/01/31 12:19:51;;;;;;;8.52;3.22;;;22.70;36.70;;;;;;6106752;28;80849;-48
2023/01/31 12:22:51;;;;;;;9.05;3.70;;;22.70;36.40;;;;;;6126192;28;80258;-51
2023/01/31 12:25:52;;;;;;;8.82;3.72;;;22.80;36.50;;;;;;6119045;28;81805;-48
2023/01/31 12:28:52;;;;;;;10.80;4.05;;;22.80;36.50;;;;;;6126143;28;82452;-51
2023/01/31 12:31:53;;;;;;;9.48;4.00;;;22.70;36.40;;;;;;6128437;28;80209;-49
2023/01/31 12:34:53;;;;;;;7.35;3.30;;;22.80;36.50;;;;;;6105205;28;80109;-52
2023/01/31 12:37:55;;;;;;;7.30;3.08;;;22.70;36.40;;;;;;6113108;28;81781;-51
2023/01/31 12:40:55;;;;;;;7.13;3.38;;;22.70;36.30;;;;;;6109203;28;80447;-49
2023/01/31 12:43:56;;;;;;;8.90;3.88;;;22.80;36.30;;;;;;6120252;28;81150;-51
2023/01/31 12:46:56;;;;;;;23.35;6.28;;;22.80;36.30;;;;;;6133527;28;80908;-48
2023/01/31 12:49:57;;;;;;;62.10;11.68;;;22.80;36.20;;;;;;6111328;28;81628;-53
2023/01/31 12:52:57;;;;;;;64.32;13.10;;;22.80;36.10;;;;;;6135734;28;83662;-48
2023/01/31 12:55:58;;;;;;;65.50;13.52;;;22.80;36.10;;;;;;6128652;28;83978;-49
2023/01/31 12:58:59;;;;;;;66.25;12.57;;;22.80;36.00;;;;;;6129348;28;83387;-50
2023/01/31 13:01:59;;;;;;;65.22;13.07;;;22.80;36.00;;;;;;6115224;28;83080;-51
2023/01/31 13:05:00;;;;;;;66.75;12.27;;;22.90;35.90;;;;;;6114348;28;82799;-48
2023/01/31 13:08:00;;;;;;;57.53;12.48;;;22.90;36.10;;;;;;6102950;28;84181;-48
2023/01/31 13:11:01;;;;;;;54.90;10.48;;;23.00;36.40;;;;;;6112206;28;82858;-51
2023/01/31 13:14:01;;;;;;;47.60;10.43;;;23.00;36.30;;;;;;6112173;28;83199;-49
2023/01/31 13:17:02;;;;;;;34.13;8.48;;;23.00;36.40;;;;;;6111384;28;84288;-47
2023/01/31 13:20:03;;;;;;;44.42;8.88;;;23.00;36.60;;;;;;6107942;28;83710;-50
2023/01/31 13:23:03;;;;;;;35.08;9.18;;;23.10;36.70;;;;;;6115706;28;80345;-50
2023/01/31 13:26:04;;;;;;;31.38;7.25;;;23.10;36.70;;;;;;6101754;28;82045;-48
2023/01/31 13:29:04;;;;;;;41.35;8.88;;;23.10;36.50;;;;;;6111237;28;81317;-56
2023/01/31 13:32:05;;;;;;;26.85;7.80;;;23.20;36.50;;;;;;6112753;28;80536;-52
2023/01/31 13:35:05;;;;;;;30.77;7.65;;;23.20;36.60;;;;;;6114825;28;81685;-52
2023/01/31 13:38:06;;;;;;;31.23;7.15;;;23.20;36.60;;;;;;6109798;28;80409;-53
2023/01/31 13:41:06;;;;;;;26.90;6.50;;;23.20;36.70;;;;;;6113731;28;83304;-52
2023/01/31 13:44:07;;;;;;;23.63;6.75;;;23.20;36.70;;;;;;6108011;28;81310;-53
2023/01/31 13:47:08;;;;;;;20.45;7.13;;;23.10;36.70;;;;;;6109009;28;82498;-52
2023/01/31 13:50:08;;;;;;;28.20;6.97;;;23.10;36.70;;;;;;6112489;28;80594;-49
2023/01/31 13:53:09;;;;;;;24.30;6.97;;;23.10;36.70;;;;;;6104163;28;80055;-49
2023/01/31 13:56:09;;;;;;;21.55;7.45;;;23.00;36.60;;;;;;6106445;28;81353;-58
2023/01/31 13:59:10;;;;;;;22.77;6.82;;;23.00;36.70;;;;;;6111643;28;80552;-51
2023/01/31 14:02:10;;;;;;;17.77;6.38;;;23.00;36.60;;;;;;6127888;28;82515;-49
2023/01/31 14:05:11;;;;;;;16.48;6.00;;;23.00;37.10;;;;;;6125596;28;80279;-60
2023/01/31 14:08:11;;;;;;;22.00;6.78;;;23.00;37.20;;;;;;6100599;28;83192;-60
2023/01/31 14:11:12;;;;;;;23.73;7.57;;;23.00;37.30;;;;;;6106244;28;82165;-58
2023/01/31 14:14:12;;;;;;;21.95;6.38;;;23.00;37.40;;;;;;6138590;28;80397;-59
2023/01/31 14:17:13;;;;;;;15.98;5.50;;;23.00;37.40;;;;;;6154652;28;80549;-60
2023/01/31 14:20:13;;;;;;;18.77;5.43;;;23.00;37.60;;;;;;6136496;28;80277;-59
2023/01/31 14:23:14;;;;;;;20.30;5.60;;;23.00;37.70;;;;;;6127256;28;80584;-60
2023/01/31 14:26:14;;;;;;;16.67;5.55;;;23.00;37.80;;;;;;6126287;28;80742;-59
2023/01/31 14:29:15;;;;;;;22.85;6.00;;;23.00;37.80;;;;;;6135898;28;81373;-60
2023/01/31 14:32:15;;;;;;;16.92;5.70;;;23.00;37.80;;;;;;6128200;28;80847;-59
2023/01/31 14:35:16;;;;;;;12.60;5.18;;;23.00;37.90;;;;;;6127022;28;81508;-59
2023/01/31 14:38:17;;;;;;;16.63;4.93;;;23.10;37.70;;;;;;6129533;28;85391;-59
2023/01/31 14:41:17;;;;;;;11.85;4.90;;;23.00;37.60;;;;;;6128217;28;81496;-59
2023/01/31 14:44:18;;;;;;;11.63;4.93;;;23.00;37.50;;;;;;6129532;28;80426;-59
2023/01/31 14:47:18;;;;;;;15.18;5.82;;;23.00;37.60;;;;;;6130772;28;80676;-59
2023/01/31 14:50:19;;;;;;;14.25;5.47;;;23.00;37.60;;;;;;6142338;28;80417;-59
2023/01/31 14:53:19;;;;;;;16.60;4.95;;;23.00;38.00;;;;;;6095614;28;84074;-60
2023/01/31 14:56:20;;;;;;;15.07;5.38;;;23.00;38.00;;;;;;6102240;28;83476;-58
2023/01/31 14:59:20;;;;;;;14.18;5.13;;;23.00;38.60;;;;;;6117326;28;85462;-58
2023/01/31 15:02:21;;;;;;;15.45;4.60;;;22.90;38.00;;;;;;6122513;28;80332;-60
2023/01/31 15:05:21;;;;;;;18.25;5.47;;;22.90;38.90;;;;;;6120103;28;82557;-61
2023/01/31 15:08:22;;;;;;;11.55;4.78;;;22.90;38.40;;;;;;6108036;28;80401;-60
2023/01/31 15:11:24;;;;;;;10.77;4.60;;;22.80;38.20;;;;;;6101450;28;81071;-60
2023/01/31 15:14:24;;;;;;;13.48;5.15;;;22.80;38.30;;;;;;6111375;28;80613;-55
2023/01/31 15:17:25;;;;;;;14.00;4.80;;;22.70;38.30;;;;;;6108872;28;80662;-58
2023/01/31 15:20:26;;;;;;;14.07;4.57;;;22.80;38.30;;;;;;6113281;28;81103;-57
2023/01/31 15:23:26;;;;;;;11.18;4.72;;;22.70;38.30;;;;;;6101539;28;81678;-59
2023/01/31 15:26:27;;;;;;;12.75;4.95;;;22.60;38.30;;;;;;6108538;28;80446;-56
2023/01/31 15:29:27;;;;;;;14.07;4.82;;;22.60;38.30;;;;;;6116403;28;80740;-59
2023/01/31 15:32:28;;;;;;;13.60;5.82;;;22.60;38.50;;;;;;6108367;28;80350;-59
2023/01/31 15:35:28;;;;;;;10.02;4.70;;;22.60;38.70;;;;;;6107489;28;80572;-58
2023/01/31 15:38:29;;;;;;;11.70;5.07;;;22.50;38.70;;;;;;6120947;28;80515;-60
2023/01/31 15:41:29;;;;;;;10.20;4.72;;;22.50;39.10;;;;;;6106317;28;80240;-59
2023/01/31 15:44:30;;;;;;;13.40;5.38;;;22.50;39.10;;;;;;6107063;28;83525;-59